Kezdőlap
METAR-TAF:

METAR-TAF

Repülőterek :

Nagyszeben, Románia

földrajzi szélesség: 45-48N, földrajzi hosszúság: 024-09E, magasság: 443 m

Jelenlegi meteorológiai megfigyelések

A jelentés 19 perccel ezelõtt készült, 02:30 UTC
Szélcsend
Hőmérséklet 14°C
Páratartalom 100%
Légköri nyomás 1018 hPa
Látótávolság 10 km, vagy több
felhőtlen 1500 m magasságban, és nincs gomolyfelhõ

METAR: LRSB 210230Z 00000KT CAVOK 14/14 Q1018 NOSIG

Idő: 05:49 (02:49 UTC)

Előrejelzés

A jelentés 3 órával és 49 perccel ezelõtt készült, 23:00 UTC
Az előrejelzés 21-én 00 óra UTC és 21-én 24 óra UTC között érvényes
Különbözõ irányokból fújó szél 4 kt
Látótávolság 10 km, vagy több
felhőtlen 1500 m magasságban, és nincs gomolyfelhõ
21-én 11 óra UTC és 21-én 16 óra UTC között ideiglenes
Kevés felhő 5000 lábon, Cumulonimbus.

TAF: LRSB 202300Z 2100/2124 VRB04KT CAVOK TEMPO 2111/2116 FEW050CB

Meteorológiai megfigyelések és előrejelzések több, mint 4000 repülőtéren (METAR és TAF jelentéseket).

A térképen piros és sárga pontok jelzik az elérhető meteorológiai állomásokat.

Mozgassa az egeret a pont fölött, hogy megjelenjen az állomás neve.

Azután kattintson az időjárási megfigyelések és előrejelzések megtekintéséhez.

A térkép megváltoztatása: kattintson a fekete keresztel jelölt zöld gombra ráközelítéshez, a vonallal jelölt zöld gombra távolításhoz, vagy a zöld nyilakra a szomszédos térképek eléréséhez.


METAR-TAF: